Time;durP1;ratioP1;P1;durP2;ratioP2;P2;SDS_P1;SDS_P2;PMS_P1;PMS_P2;Temp;Humidity;BMP_temperature;BMP_pressure;BME280_temperature;BME280_humidity;BME280_pressure;Samples;Min_cycle;Max_cycle;Signal;HPM_P1;HPM_P2
2022/10/02 00:02:29;;;;;;;2.90;2.00;;;23.10;56.70;;;;;;4954113;29;20055;-66
2022/10/02 00:05:09;;;;;;;2.72;2.45;;;23.10;56.70;;;;;;4953777;29;20047;-67
2022/10/02 00:07:43;;;;;;;1.90;1.80;;;23.00;56.60;;;;;;4954095;29;20062;-67
2022/10/02 00:10:40;;;;;;;3.10;2.22;;;23.00;56.60;;;;;;4954100;29;20073;-66
2022/10/02 00:13:14;;;;;;;2.33;2.08;;;23.00;56.60;;;;;;4954301;29;20043;-66
2022/10/02 00:15:41;;;;;;;3.35;2.30;;;23.00;56.60;;;;;;4953106;29;20590;-67
2022/10/02 00:18:13;;;;;;;2.67;2.30;;;23.00;56.60;;;;;;4972335;28;20066;-67
2022/10/02 00:21:13;;;;;;;3.80;2.17;;;23.00;56.60;;;;;;4973469;28;20095;-66
2022/10/02 00:23:48;;;;;;;3.00;2.50;;;23.00;56.50;;;;;;4968518;28;20059;-67
2022/10/02 00:26:25;;;;;;;3.08;2.67;;;23.00;57.10;;;;;;4973275;28;20057;-67
2022/10/02 00:29:23;;;;;;;2.38;2.17;;;23.10;56.60;;;;;;4972444;28;20043;-66
2022/10/02 00:32:26;;;;;;;3.20;2.45;;;23.00;56.50;;;;;;4973472;28;20061;-67
2022/10/02 00:35:32;;;;;;;2.25;1.90;;;23.00;56.60;;;;;;4955374;28;20078;-66
2022/10/02 00:38:14;;;;;;;2.38;2.17;;;23.00;56.60;;;;;;4972982;28;20447;-66
2022/10/02 00:41:16;;;;;;;2.65;2.15;;;23.00;56.60;;;;;;4971648;28;20051;-67
2022/10/02 00:44:22;;;;;;;3.00;2.60;;;23.00;56.60;;;;;;4948280;29;20054;-66
2022/10/02 00:47:14;;;;;;;2.42;2.25;;;23.00;56.60;;;;;;4952738;29;20047;-67
2022/10/02 00:50:17;;;;;;;2.28;1.85;;;23.00;56.60;;;;;;4953614;29;20059;-66
2022/10/02 00:53:09;;;;;;;3.03;2.28;;;23.00;56.60;;;;;;4940825;29;20053;-66
2022/10/02 00:55:52;;;;;;;2.92;2.25;;;23.00;56.60;;;;;;4948979;29;20079;-66
2022/10/02 00:58:38;;;;;;;3.28;2.40;;;23.00;56.60;;;;;;4936263;29;20357;-66
2022/10/02 01:01:12;;;;;;;2.60;2.08;;;23.00;56.60;;;;;;4953394;29;20051;-66
2022/10/02 01:03:43;;;;;;;2.47;2.25;;;23.00;56.60;;;;;;4952856;29;20059;-67
2022/10/02 01:06:11;;;;;;;2.47;2.10;;;23.00;56.70;;;;;;4953120;29;20083;-66
2022/10/02 01:08:38;;;;;;;2.70;1.88;;;23.00;56.70;;;;;;4952252;29;20043;-67
2022/10/02 01:11:07;;;;;;;1.98;1.88;;;23.00;56.70;;;;;;4953040;29;20055;-66
2022/10/02 01:13:34;;;;;;;2.00;1.85;;;22.90;56.70;;;;;;4953590;29;20127;-67
2022/10/02 01:16:02;;;;;;;2.25;2.05;;;22.90;56.70;;;;;;4935032;29;20043;-67
2022/10/02 01:18:30;;;;;;;2.75;2.47;;;22.90;56.70;;;;;;4953449;29;20055;-66
2022/10/02 01:21:04;;;;;;;2.30;1.88;;;22.90;56.70;;;;;;4936060;29;20051;-66
2022/10/02 01:23:58;;;;;;;2.15;1.95;;;22.90;56.70;;;;;;4953717;29;20055;-66
2022/10/02 01:26:25;;;;;;;2.97;2.20;;;23.00;56.80;;;;;;4951500;29;20058;-67
2022/10/02 01:28:52;;;;;;;3.72;2.00;;;22.90;56.70;;;;;;4949711;29;20434;-67
2022/10/02 01:31:20;;;;;;;2.75;2.05;;;22.90;56.70;;;;;;4952923;29;20051;-66
2022/10/02 01:33:48;;;;;;;2.58;2.38;;;22.90;56.80;;;;;;4953099;29;20102;-67
2022/10/02 01:36:16;;;;;;;2.38;2.00;;;22.90;56.70;;;;;;4952840;29;20062;-66
2022/10/02 01:38:45;;;;;;;3.30;2.38;;;22.90;56.70;;;;;;4952939;29;20057;-66
2022/10/02 01:41:12;;;;;;;3.08;1.92;;;22.90;56.70;;;;;;4953083;28;20043;-63
2022/10/02 01:43:47;;;;;;;3.47;2.10;;;22.90;56.70;;;;;;4950399;28;20079;-67
2022/10/02 01:46:38;;;;;;;2.20;2.00;;;22.90;56.70;;;;;;4975184;28;20082;-66
2022/10/02 01:49:42;;;;;;;2.38;2.17;;;23.00;56.60;;;;;;4976074;28;20061;-67
2022/10/02 01:52:35;;;;;;;1.98;1.77;;;22.90;56.50;;;;;;4961067;28;20061;-66
2022/10/02 01:55:20;;;;;;;2.30;2.10;;;22.90;56.50;;;;;;4976456;28;20058;-66
2022/10/02 01:58:15;;;;;;;1.70;1.60;;;23.00;56.50;;;;;;4975927;28;20054;-66
2022/10/02 02:01:10;;;;;;;2.38;2.17;;;22.90;56.50;;;;;;4971227;28;20562;-66
2022/10/02 02:04:12;;;;;;;1.92;1.83;;;22.90;56.50;;;;;;4975159;28;20484;-66
2022/10/02 02:07:19;;;;;;;2.30;2.10;;;22.90;56.40;;;;;;4976067;28;20047;-66
2022/10/02 02:10:22;;;;;;;2.13;1.95;;;22.90;57.00;;;;;;4975807;28;20047;-67
2022/10/02 02:13:12;;;;;;;2.20;1.73;;;22.90;56.50;;;;;;4975595;28;20043;-67
2022/10/02 02:15:55;;;;;;;2.20;2.10;;;22.90;56.50;;;;;;4975200;28;20050;-66
2022/10/02 02:18:28;;;;;;;4.35;2.22;;;22.90;56.50;;;;;;4975080;28;20057;-67
2022/10/02 02:21:01;;;;;;;2.58;2.38;;;22.90;56.50;;;;;;4975204;28;20042;-67
2022/10/02 02:23:32;;;;;;;2.13;1.92;;;22.90;56.50;;;;;;4974980;28;20081;-66
2022/10/02 02:26:05;;;;;;;2.65;2.45;;;22.90;56.50;;;;;;4975416;28;20057;-67
2022/10/02 02:28:35;;;;;;;2.20;2.00;;;22.90;56.50;;;;;;4974513;28;20051;-67
2022/10/02 02:31:04;;;;;;;2.60;2.40;;;22.90;56.50;;;;;;4974720;28;20487;-67
2022/10/02 02:33:38;;;;;;;2.40;2.20;;;22.90;56.80;;;;;;4953711;28;20389;-66
2022/10/02 02:36:13;;;;;;;2.47;2.28;;;22.80;56.40;;;;;;4974329;28;20051;-66
2022/10/02 02:38:46;;;;;;;2.70;2.45;;;22.80;56.50;;;;;;4974909;28;20051;-67
2022/10/02 02:41:19;;;;;;;2.70;1.80;;;22.90;56.50;;;;;;4974384;28;20134;-67
2022/10/02 02:44:02;;;;;;;2.10;1.90;;;22.80;56.40;;;;;;4964103;28;20051;-67
2022/10/02 02:47:02;;;;;;;3.22;2.13;;;22.80;56.40;;;;;;4955254;29;20055;-67
2022/10/02 02:49:39;;;;;;;1.60;1.50;;;22.90;56.50;;;;;;4955560;29;20047;-67
2022/10/02 02:52:08;;;;;;;;;;;22.80;56.40;;;;;;4955116;28;20055;-67
2022/10/02 02:54:41;;;;;;;2.17;1.98;;;22.80;56.40;;;;;;4955657;29;19923;-66
2022/10/02 02:57:12;;;;;;;1.85;1.75;;;22.80;56.50;;;;;;4956023;29;20051;-67
2022/10/02 02:59:43;;;;;;;1.92;1.83;;;22.80;56.50;;;;;;4954820;29;20051;-67
2022/10/02 03:02:10;;;;;;;2.13;1.92;;;22.80;56.50;;;;;;4955392;29;20423;-67
2022/10/02 03:04:37;;;;;;;2.20;2.00;;;22.80;56.50;;;;;;4950255;29;20091;-67
2022/10/02 03:07:05;;;;;;;2.08;1.65;;;22.80;56.50;;;;;;4955703;28;20054;-66
2022/10/02 03:09:32;;;;;;;2.05;1.95;;;22.80;56.50;;;;;;4955071;29;20051;-66
2022/10/02 03:12:22;;;;;;;2.88;1.95;;;22.80;56.50;;;;;;4954936;29;20051;-66
2022/10/02 03:15:20;;;;;;;2.13;1.92;;;22.80;56.50;;;;;;4938025;29;20059;-66
2022/10/02 03:18:14;;;;;;;1.95;1.85;;;22.70;56.50;;;;;;4954406;29;20058;-67
2022/10/02 03:21:08;;;;;;;2.92;1.92;;;22.80;56.60;;;;;;4941405;29;20044;-67
2022/10/02 03:24:05;;;;;;;2.28;1.90;;;22.80;56.60;;;;;;4967960;28;20050;-67
2022/10/02 03:26:44;;;;;;;1.92;1.77;;;22.70;56.50;;;;;;4978528;28;20072;-66
2022/10/02 03:29:19;;;;;;;1.42;1.33;;;22.70;56.60;;;;;;4993228;28;20344;-66
2022/10/02 03:31:47;;;;;;;2.25;2.05;;;22.70;56.60;;;;;;4993811;28;20049;-66
2022/10/02 03:34:16;;;;;;;3.20;1.55;;;22.70;56.60;;;;;;4993482;28;20061;-66
2022/10/02 03:36:45;;;;;;;3.05;1.95;;;22.70;56.60;;;;;;4988014;28;20161;-67
2022/10/02 03:39:13;;;;;;;2.28;1.80;;;22.70;56.60;;;;;;4969418;28;20047;-66
2022/10/02 03:41:52;;;;;;;2.17;1.50;;;22.70;56.60;;;;;;4954516;28;20051;-67
2022/10/02 03:44:19;;;;;;;1.92;1.83;;;22.70;56.60;;;;;;4970375;28;20043;-67
2022/10/02 03:46:46;;;;;;;3.00;1.70;;;22.70;56.60;;;;;;4973542;28;20042;-67
2022/10/02 03:49:13;;;;;;;1.77;1.55;;;22.70;56.60;;;;;;4956522;28;20411;-67
2022/10/02 03:51:41;;;;;;;1.77;1.67;;;22.70;56.60;;;;;;4973800;28;20051;-67
2022/10/02 03:54:16;;;;;;;2.25;1.80;;;22.70;56.50;;;;;;4973158;28;20483;-67
2022/10/02 03:56:53;;;;;;;3.92;1.83;;;22.70;57.00;;;;;;4973907;28;20061;-67
2022/10/02 03:59:49;;;;;;;1.90;1.70;;;22.70;56.40;;;;;;4972908;28;20051;-67
2022/10/02 04:02:33;;;;;;;1.83;1.67;;;22.70;56.40;;;;;;4972757;28;20047;-67
2022/10/02 04:05:17;;;;;;;1.70;1.60;;;22.70;56.30;;;;;;4972176;28;20057;-67
2022/10/02 04:07:49;;;;;;;2.42;1.73;;;22.70;56.30;;;;;;4971747;28;20047;-67
2022/10/02 04:10:31;;;;;;;1.90;1.80;;;22.80;56.30;;;;;;4970585;28;20042;-66
2022/10/02 04:13:10;;;;;;;1.83;1.73;;;22.70;56.20;;;;;;4973423;28;20047;-67
2022/10/02 04:16:02;;;;;;;1.90;1.80;;;22.70;56.20;;;;;;4956855;28;20051;-66
2022/10/02 04:18:54;;;;;;;1.80;1.70;;;22.70;56.20;;;;;;4971671;28;20510;-67
2022/10/02 04:21:52;;;;;;;2.17;1.73;;;22.70;56.20;;;;;;4973233;28;20049;-66
2022/10/02 04:24:43;;;;;;;3.25;2.15;;;22.70;56.20;;;;;;4972777;28;20055;-66
2022/10/02 04:27:35;;;;;;;1.75;1.65;;;22.70;56.20;;;;;;4960084;28;20058;-66
2022/10/02 04:30:14;;;;;;;1.63;1.52;;;22.70;56.20;;;;;;4971391;28;20047;-67
2022/10/02 04:32:41;;;;;;;1.75;1.65;;;22.70;56.20;;;;;;4973187;28;20527;-63
2022/10/02 04:35:24;;;;;;;1.80;1.65;;;22.70;56.20;;;;;;4972233;28;20062;-67
2022/10/02 04:38:27;;;;;;;2.25;1.83;;;22.70;56.10;;;;;;4973032;28;20528;-67
2022/10/02 04:41:27;;;;;;;1.75;1.65;;;22.70;55.90;;;;;;4968121;28;20443;-67
2022/10/02 04:44:22;;;;;;;2.28;1.70;;;22.70;55.80;;;;;;4946938;29;20055;-67
2022/10/02 04:47:29;;;;;;;3.00;1.77;;;22.70;55.70;;;;;;4953197;29;20051;-66
2022/10/02 04:50:33;;;;;;;2.08;1.83;;;22.70;55.60;;;;;;4953164;29;20435;-66
2022/10/02 04:53:40;;;;;;;1.85;1.70;;;22.70;55.50;;;;;;4953314;28;20540;-67
2022/10/02 04:56:22;;;;;;;2.42;1.52;;;22.70;55.40;;;;;;4942057;29;20440;-66
2022/10/02 04:59:29;;;;;;;1.70;1.30;;;22.70;55.40;;;;;;4953453;29;20055;-66
2022/10/02 05:02:36;;;;;;;2.00;1.80;;;22.70;55.50;;;;;;4953276;29;20051;-66
2022/10/02 05:05:30;;;;;;;1.77;1.67;;;22.70;55.50;;;;;;4952531;29;20047;-67
2022/10/02 05:08:12;;;;;;;2.83;1.70;;;22.70;55.50;;;;;;4952651;29;20530;-67
2022/10/02 05:11:15;;;;;;;1.73;1.63;;;22.70;55.40;;;;;;4953199;29;20516;-67
2022/10/02 05:14:14;;;;;;;6.53;2.15;;;22.70;55.30;;;;;;4938102;29;20050;-67
2022/10/02 05:17:20;;;;;;;1.73;1.63;;;22.70;55.30;;;;;;4954090;28;20150;-66
2022/10/02 05:20:08;;;;;;;2.10;1.92;;;22.70;55.10;;;;;;4956734;29;20051;-66
2022/10/02 05:23:01;;;;;;;1.63;1.52;;;22.70;55.10;;;;;;4941579;29;20270;-66
2022/10/02 05:26:08;;;;;;;1.77;1.63;;;22.80;55.00;;;;;;4956815;29;20047;-67
2022/10/02 05:29:11;;;;;;;2.67;2.00;;;22.80;55.00;;;;;;4946200;29;20093;-67
2022/10/02 05:32:18;;;;;;;1.70;1.60;;;22.80;55.00;;;;;;4942405;29;20500;-66
2022/10/02 05:35:00;;;;;;;1.85;1.75;;;22.90;55.10;;;;;;4942210;29;20078;-63
2022/10/02 05:37:56;;;;;;;1.67;1.58;;;22.80;54.90;;;;;;4956937;28;20455;-66
2022/10/02 05:40:32;;;;;;;1.73;1.63;;;22.80;54.90;;;;;;4989527;28;20057;-67
2022/10/02 05:43:22;;;;;;;2.65;1.73;;;22.80;54.90;;;;;;4973764;28;20043;-66
2022/10/02 05:45:55;;;;;;;1.85;1.65;;;22.90;54.80;;;;;;4973421;28;20058;-66
2022/10/02 05:48:27;;;;;;;3.60;1.42;;;22.90;54.80;;;;;;4958793;28;20049;-67
2022/10/02 05:51:01;;;;;;;1.67;1.58;;;22.90;54.70;;;;;;4958563;28;20054;-67
2022/10/02 05:53:39;;;;;;;2.17;2.03;;;22.90;54.60;;;;;;4958919;28;20077;-67
2022/10/02 05:56:21;;;;;;;2.35;1.73;;;22.90;54.60;;;;;;4975881;28;20061;-65
2022/10/02 05:58:59;;;;;;;2.13;1.88;;;22.90;54.60;;;;;;4975792;28;20484;-67
2022/10/02 06:01:41;;;;;;;1.85;1.45;;;23.00;54.50;;;;;;4975507;28;20047;-67
2022/10/02 06:04:38;;;;;;;1.73;1.63;;;23.00;54.50;;;;;;4975676;28;20046;-67
2022/10/02 06:07:10;;;;;;;2.20;2.05;;;23.00;54.90;;;;;;4975230;28;20050;-67
2022/10/02 06:09:51;;;;;;;2.38;2.20;;;23.00;54.30;;;;;;4975666;28;20661;-66
2022/10/02 06:12:36;;;;;;;2.90;1.80;;;23.10;54.30;;;;;;4958104;28;20388;-67
2022/10/02 06:15:25;;;;;;;1.95;1.85;;;23.10;54.20;;;;;;4975291;28;20073;-67
2022/10/02 06:17:58;;;;;;;1.95;1.85;;;23.10;54.20;;;;;;4971789;28;20046;-66
2022/10/02 06:20:49;;;;;;;1.60;1.50;;;23.10;54.10;;;;;;4975622;28;20268;-67
2022/10/02 06:23:34;;;;;;;1.67;1.58;;;23.10;54.10;;;;;;4975354;28;20046;-66
2022/10/02 06:26:26;;;;;;;1.92;1.52;;;23.10;54.00;;;;;;4975330;28;20058;-67
2022/10/02 06:29:01;;;;;;;1.50;1.40;;;23.20;54.00;;;;;;4974985;28;20054;-67
2022/10/02 06:31:49;;;;;;;1.58;1.45;;;23.20;53.90;;;;;;4963171;28;20534;-67
2022/10/02 06:34:17;;;;;;;1.63;1.42;;;23.20;53.90;;;;;;4975677;28;20043;-67
2022/10/02 06:37:24;;;;;;;1.65;1.55;;;23.20;53.80;;;;;;4974283;28;20050;-67
2022/10/02 06:40:29;;;;;;;1.67;1.58;;;23.30;53.70;;;;;;4963590;28;20050;-67
2022/10/02 06:43:39;;;;;;;1.40;1.30;;;23.30;53.60;;;;;;4971653;28;20047;-67
2022/10/02 06:46:41;;;;;;;1.57;1.43;;;23.30;54.10;;;;;;4974498;28;20047;-67
2022/10/02 06:49:48;;;;;;;1.27;1.20;;;23.30;53.40;;;;;;4955865;28;20538;-67
2022/10/02 06:52:44;;;;;;;1.40;1.30;;;23.30;53.40;;;;;;4974420;28;20051;-66
2022/10/02 06:55:41;;;;;;;1.40;1.40;;;23.40;53.30;;;;;;4974479;28;20077;-66
2022/10/02 06:58:38;;;;;;;1.27;1.08;;;23.40;53.20;;;;;;4930161;28;20066;-67
2022/10/02 07:01:36;;;;;;;1.30;1.20;;;23.40;53.10;;;;;;4974495;28;20527;-66
2022/10/02 07:04:32;;;;;;;1.30;1.20;;;23.40;53.00;;;;;;4959786;28;20242;-67
2022/10/02 07:07:35;;;;;;;1.17;1.15;;;23.40;52.90;;;;;;4973871;28;20053;-67
2022/10/02 07:10:28;;;;;;;1.48;1.38;;;23.50;52.90;;;;;;4974748;28;20057;-67
2022/10/02 07:13:27;;;;;;;1.27;1.17;;;23.50;52.80;;;;;;4973376;28;20043;-67
2022/10/02 07:16:18;;;;;;;2.63;1.40;;;23.50;52.70;;;;;;4973964;28;20046;-67
2022/10/02 07:19:25;;;;;;;1.95;1.00;;;23.60;52.60;;;;;;4974473;28;20053;-66
2022/10/02 07:22:32;;;;;;;1.17;1.10;;;23.60;52.50;;;;;;4971438;28;20046;-66
2022/10/02 07:25:41;;;;;;;1.38;1.27;;;23.60;52.40;;;;;;4974131;28;20086;-67
2022/10/02 07:28:38;;;;;;;1.92;1.38;;;23.60;52.30;;;;;;4961458;28;20268;-67
2022/10/02 07:31:45;;;;;;;2.70;1.45;;;23.60;52.20;;;;;;4974129;28;20126;-67
2022/10/02 07:34:34;;;;;;;1.40;1.30;;;23.60;52.10;;;;;;4962525;28;20134;-66
2022/10/02 07:37:33;;;;;;;1.27;1.00;;;23.70;52.10;;;;;;4973644;28;20051;-67
2022/10/02 07:40:34;;;;;;;1.63;0.95;;;23.70;52.00;;;;;;4958677;28;20046;-67
2022/10/02 07:43:40;;;;;;;0.98;0.82;;;23.70;51.80;;;;;;4973920;28;20039;-66
2022/10/02 07:46:19;;;;;;;1.42;0.90;;;23.70;51.70;;;;;;4975369;28;20264;-66
2022/10/02 07:49:21;;;;;;;1.23;0.90;;;23.70;51.50;;;;;;4973914;28;20247;-67
2022/10/02 07:52:22;;;;;;;0.75;0.75;;;23.80;51.30;;;;;;4970622;28;20046;-67
2022/10/02 07:55:14;;;;;;;0.95;0.85;;;23.90;51.10;;;;;;4973473;28;20051;-67
2022/10/02 07:57:51;;;;;;;2.50;1.50;;;23.90;50.80;;;;;;4960448;28;20061;-67
2022/10/02 08:00:21;;;;;;;1.05;0.80;;;24.00;50.70;;;;;;4973060;28;20281;-63
2022/10/02 08:03:07;;;;;;;0.60;0.60;;;24.10;50.40;;;;;;4956403;28;20108;-67
2022/10/02 08:05:45;;;;;;;0.80;0.80;;;24.10;50.20;;;;;;4972899;28;20055;-67
2022/10/02 08:08:30;;;;;;;0.68;0.68;;;24.10;50.20;;;;;;4977373;28;20050;-67
2022/10/02 08:11:08;;;;;;;0.90;0.60;;;24.20;50.00;;;;;;4992747;28;20054;-67
2022/10/02 08:13:54;;;;;;;1.27;0.75;;;24.20;50.00;;;;;;4993013;28;20052;-67
2022/10/02 08:16:28;;;;;;;0.70;0.70;;;24.30;49.50;;;;;;4992534;28;20054;-67
2022/10/02 08:19:01;;;;;;;0.55;0.55;;;24.30;49.50;;;;;;4992136;28;20105;-67
2022/10/02 08:21:37;;;;;;;1.40;0.95;;;24.30;49.30;;;;;;4992927;28;20050;-67
2022/10/02 08:24:12;;;;;;;1.85;0.90;;;24.40;49.30;;;;;;4970686;28;20065;-66
2022/10/02 08:26:47;;;;;;;0.70;0.70;;;24.40;48.90;;;;;;4992033;28;20057;-67
2022/10/02 08:29:23;;;;;;;0.43;0.43;;;24.40;48.70;;;;;;4992360;28;20053;-67
2022/10/02 08:31:55;;;;;;;0.57;0.50;;;24.50;48.60;;;;;;4974799;28;20042;-67
2022/10/02 08:34:24;;;;;;;0.75;0.60;;;24.50;48.60;;;;;;4975613;28;20459;-67
2022/10/02 08:37:30;;;;;;;0.50;0.50;;;24.50;48.40;;;;;;4992125;28;20054;-67
2022/10/02 08:40:33;;;;;;;0.60;0.60;;;24.50;48.20;;;;;;4980719;28;20542;-67
2022/10/02 08:43:40;;;;;;;0.65;0.57;;;24.50;48.20;;;;;;4969540;28;20054;-66
2022/10/02 08:46:40;;;;;;;0.50;0.50;;;24.60;48.10;;;;;;4972840;28;20046;-67
2022/10/02 08:49:40;;;;;;;0.43;0.43;;;24.60;48.10;;;;;;4972975;28;20046;-67
2022/10/02 08:52:46;;;;;;;0.40;0.40;;;24.60;48.00;;;;;;4971349;28;20046;-67
2022/10/02 08:55:46;;;;;;;0.40;0.40;;;24.60;47.80;;;;;;4960705;28;20072;-67
2022/10/02 08:58:45;;;;;;;2.72;0.40;;;24.60;47.80;;;;;;4967087;28;20051;-67
2022/10/02 09:01:53;;;;;;;0.68;0.45;;;24.70;48.00;;;;;;4953014;29;20051;-67
2022/10/02 09:05:05;;;;;;;1.45;0.60;;;24.70;47.60;;;;;;4970739;28;20066;-67
2022/10/02 09:08:12;;;;;;;0.73;0.60;;;24.70;47.40;;;;;;4952940;29;20062;-67
2022/10/02 09:11:19;;;;;;;1.13;0.43;;;24.70;47.70;;;;;;4953514;29;20245;-67
2022/10/02 09:14:27;;;;;;;1.08;0.50;;;24.80;47.20;;;;;;4952646;29;20170;-67
2022/10/02 09:17:16;;;;;;;0.50;0.50;;;24.80;47.30;;;;;;4953046;29;20515;-66
2022/10/02 09:20:04;;;;;;;0.30;0.30;;;24.80;47.20;;;;;;4952564;29;20050;-67
2022/10/02 09:23:07;;;;;;;0.30;0.30;;;24.80;47.20;;;;;;4952361;29;20324;-67
2022/10/02 09:25:54;;;;;;;0.77;0.40;;;24.90;47.10;;;;;;4952754;29;20058;-67
2022/10/02 09:29:00;;;;;;;0.40;0.40;;;24.90;47.10;;;;;;4951203;29;20059;-67
2022/10/02 09:31:57;;;;;;;1.30;0.50;;;24.90;46.80;;;;;;4952876;29;20047;-67
2022/10/02 09:35:00;;;;;;;0.30;0.30;;;24.90;46.90;;;;;;4935829;29;20059;-67
2022/10/02 09:38:07;;;;;;;1.33;0.57;;;24.90;46.80;;;;;;4951449;29;20047;-67
2022/10/02 09:41:09;;;;;;;0.30;0.30;;;24.90;46.70;;;;;;4952835;29;20074;-67
2022/10/02 09:44:13;;;;;;;2.05;0.30;;;24.90;46.50;;;;;;4962196;28;20426;-67
2022/10/02 09:47:08;;;;;;;0.35;0.30;;;24.90;46.70;;;;;;4972516;28;20077;-67
2022/10/02 09:50:04;;;;;;;0.40;0.40;;;24.90;46.70;;;;;;4954789;28;20051;-66
2022/10/02 09:53:08;;;;;;;0.28;0.28;;;25.00;46.80;;;;;;4972644;28;20050;-67
2022/10/02 09:56:14;;;;;;;0.35;0.20;;;25.10;46.80;;;;;;4971296;28;20487;-67
2022/10/02 09:59:21;;;;;;;0.52;0.52;;;25.10;46.80;;;;;;4970823;28;20077;-67
2022/10/02 10:02:28;;;;;;;0.20;0.20;;;25.10;46.60;;;;;;4955551;28;20051;-67
2022/10/02 10:05:24;;;;;;;0.68;0.50;;;25.10;46.60;;;;;;4975583;28;20150;-67
2022/10/02 10:08:24;;;;;;;0.22;0.22;;;25.10;46.50;;;;;;4961652;28;20050;-67
2022/10/02 10:11:29;;;;;;;0.50;0.50;;;25.10;46.30;;;;;;4975761;28;20073;-67
2022/10/02 10:14:36;;;;;;;0.52;0.38;;;25.20;46.30;;;;;;4958208;28;20515;-67
2022/10/02 10:17:37;;;;;;;0.50;0.30;;;25.20;46.20;;;;;;4974839;28;20046;-67
2022/10/02 10:20:50;;;;;;;0.55;0.30;;;25.20;46.20;;;;;;4972344;28;20447;-67
2022/10/02 10:23:55;;;;;;;0.75;0.30;;;25.30;46.10;;;;;;4964723;28;20047;-67
2022/10/02 10:26:54;;;;;;;2.33;0.22;;;25.20;46.00;;;;;;4974316;28;20051;-67
2022/10/02 10:30:02;;;;;;;0.40;0.30;;;25.30;46.00;;;;;;4975504;28;20047;-67
2022/10/02 10:33:00;;;;;;;0.30;0.30;;;25.30;45.90;;;;;;4973446;28;20047;-67
2022/10/02 10:36:07;;;;;;;0.30;0.30;;;25.30;45.80;;;;;;4975364;28;20050;-63
2022/10/02 10:39:04;;;;;;;2.88;0.30;;;25.30;45.70;;;;;;4960484;28;20062;-67
2022/10/02 10:42:13;;;;;;;0.73;0.73;;;25.30;45.70;;;;;;4988712;28;20050;-67
2022/10/02 10:45:01;;;;;;;0.40;0.30;;;25.30;45.70;;;;;;4945934;29;20066;-67
2022/10/02 10:48:08;;;;;;;0.90;0.20;;;25.30;45.60;;;;;;4955812;29;20051;-67
2022/10/02 10:50:59;;;;;;;1.58;0.90;;;25.30;45.70;;;;;;4954982;29;20058;-66
2022/10/02 10:54:07;;;;;;;0.63;0.32;;;25.30;45.60;;;;;;4954725;29;20055;-67
2022/10/02 10:56:45;;;;;;;0.43;0.43;;;25.30;46.20;;;;;;4954866;29;20059;-67
2022/10/02 10:59:51;;;;;;;0.45;0.20;;;25.20;45.60;;;;;;4954584;29;20055;-67
2022/10/02 11:02:53;;;;;;;0.20;0.20;;;25.20;45.30;;;;;;4954181;29;20054;-67
2022/10/02 11:05:50;;;;;;;0.30;0.20;;;25.30;45.60;;;;;;4934356;29;20047;-67
2022/10/02 11:08:57;;;;;;;0.50;0.47;;;25.20;45.60;;;;;;4955008;29;20043;-67
2022/10/02 11:12:04;;;;;;;0.28;0.20;;;25.20;45.60;;;;;;4943591;29;20043;-67
2022/10/02 11:15:16;;;;;;;0.80;0.20;;;25.30;45.40;;;;;;4954511;28;20090;-67
2022/10/02 11:18:05;;;;;;;1.02;0.25;;;25.20;45.50;;;;;;4965298;28;20050;-67
2022/10/02 11:21:05;;;;;;;0.43;0.43;;;25.20;45.30;;;;;;4973060;28;20532;-67
2022/10/02 11:24:03;;;;;;;0.20;0.20;;;25.30;45.50;;;;;;4957336;28;20303;-67
2022/10/02 11:27:10;;;;;;;0.90;0.40;;;25.30;45.40;;;;;;4959326;28;20069;-67
2022/10/02 11:29:58;;;;;;;2.53;0.40;;;25.30;45.50;;;;;;4974334;28;20057;-67
2022/10/02 11:32:58;;;;;;;0.82;0.45;;;25.30;45.40;;;;;;4958387;28;20335;-67
2022/10/02 11:35:56;;;;;;;0.30;0.30;;;25.20;45.40;;;;;;4974039;28;20050;-67
2022/10/02 11:38:58;;;;;;;0.43;0.30;;;25.20;45.30;;;;;;4951687;28;20492;-67
2022/10/02 11:41:44;;;;;;;0.57;0.28;;;25.20;45.30;;;;;;4973710;28;20070;-67
2022/10/02 11:44:37;;;;;;;0.90;0.40;;;25.20;45.30;;;;;;4956400;28;20054;-67
2022/10/02 11:47:45;;;;;;;0.30;0.20;;;25.20;45.30;;;;;;4973712;28;20513;-67
2022/10/02 11:50:37;;;;;;;1.75;0.88;;;25.20;45.00;;;;;;4973698;28;20435;-66
2022/10/02 11:53:42;;;;;;;0.75;0.47;;;25.20;45.30;;;;;;4973752;28;20054;-67
2022/10/02 11:56:40;;;;;;;0.55;0.35;;;25.20;45.30;;;;;;4973147;28;20053;-67
2022/10/02 11:59:40;;;;;;;0.38;0.35;;;25.20;45.30;;;;;;4974285;28;20047;-67
2022/10/02 12:02:27;;;;;;;0.98;0.32;;;25.20;45.40;;;;;;4973107;28;20131;-67
2022/10/02 12:05:21;;;;;;;0.20;0.20;;;25.20;45.30;;;;;;4957350;28;20061;-68
2022/10/02 12:08:23;;;;;;;0.45;0.35;;;25.20;45.30;;;;;;4959362;28;20051;-67
2022/10/02 12:10:58;;;;;;;0.57;0.22;;;25.20;45.40;;;;;;4969149;28;20047;-67
2022/10/02 12:13:46;;;;;;;0.52;0.30;;;25.20;45.40;;;;;;4972846;28;20482;-67
2022/10/02 12:16:31;;;;;;;0.38;0.35;;;25.20;45.30;;;;;;4973414;28;20049;-67
2022/10/02 12:19:39;;;;;;;0.50;0.30;;;25.20;45.40;;;;;;4973030;28;20377;-67
2022/10/02 12:28:54;;;;;;;0.40;0.20;;;25.20;45.40;;;;;;4961379;28;20047;-67
2022/10/02 12:31:39;;;;;;;0.43;0.20;;;25.20;45.50;;;;;;4972921;28;20558;-67
2022/10/02 12:34:37;;;;;;;0.40;0.20;;;25.10;45.40;;;;;;4957616;28;20055;-67
2022/10/02 12:37:18;;;;;;;0.40;0.40;;;25.10;45.40;;;;;;4972909;28;20456;-67
2022/10/02 12:40:12;;;;;;;0.13;0.13;;;25.10;45.40;;;;;;4957444;28;20046;-67
2022/10/02 12:43:19;;;;;;;0.28;0.28;;;25.10;45.40;;;;;;4966297;28;20387;-67
2022/10/02 12:46:06;;;;;;;0.43;0.40;;;25.10;45.50;;;;;;4953532;29;20135;-67
2022/10/02 12:48:52;;;;;;;0.30;0.13;;;25.10;45.50;;;;;;4953172;29;20145;-67
2022/10/02 12:51:54;;;;;;;1.02;0.30;;;25.10;45.50;;;;;;4953404;29;20043;-66
2022/10/02 12:54:54;;;;;;;0.40;0.30;;;25.10;45.60;;;;;;4953733;29;20047;-66
2022/10/02 12:57:53;;;;;;;0.20;0.20;;;25.10;45.60;;;;;;4938307;29;20051;-67
2022/10/02 13:00:40;;;;;;;0.35;0.35;;;25.10;45.70;;;;;;4953695;28;20062;-67
2022/10/02 13:03:47;;;;;;;0.30;0.30;;;25.00;45.70;;;;;;4953244;29;20050;-67
2022/10/02 13:06:45;;;;;;;0.25;0.25;;;25.00;45.80;;;;;;4951524;29;20455;-67
2022/10/02 13:09:42;;;;;;;0.68;0.28;;;25.00;45.80;;;;;;4936417;29;20131;-67
2022/10/02 13:12:41;;;;;;;1.20;0.25;;;25.00;45.80;;;;;;4953088;29;20055;-67
2022/10/02 13:15:28;;;;;;;0.32;0.32;;;25.00;45.90;;;;;;4936521;29;20085;-63
2022/10/02 13:18:24;;;;;;;0.20;0.20;;;25.00;45.90;;;;;;4953739;29;20051;-67
2022/10/02 13:21:12;;;;;;;0.60;0.40;;;25.00;45.90;;;;;;4952735;29;20063;-67
2022/10/02 13:24:07;;;;;;;0.88;0.57;;;25.00;45.90;;;;;;4953412;29;20127;-67
2022/10/02 13:26:45;;;;;;;1.48;0.98;;;25.00;45.90;;;;;;4938793;29;20055;-67
2022/10/02 13:29:51;;;;;;;0.28;0.20;;;25.00;45.90;;;;;;4953114;29;20051;-66
2022/10/02 13:32:43;;;;;;;0.47;0.47;;;25.00;45.90;;;;;;4939307;29;20385;-67
2022/10/02 13:35:44;;;;;;;0.20;0.20;;;25.00;45.90;;;;;;4952643;29;20504;-67
2022/10/02 13:38:50;;;;;;;1.30;0.40;;;25.00;45.90;;;;;;4954449;28;20089;-67
2022/10/02 13:41:57;;;;;;;0.30;0.30;;;25.10;45.90;;;;;;4957145;29;20130;-67
2022/10/02 13:45:02;;;;;;;0.22;0.10;;;25.00;45.80;;;;;;4971631;28;20050;-67
2022/10/02 13:47:39;;;;;;;0.20;0.20;;;25.10;45.90;;;;;;4971748;28;20106;-67
2022/10/02 13:50:36;;;;;;;0.52;0.43;;;25.10;45.80;;;;;;4974663;28;20583;-67
2022/10/02 13:53:33;;;;;;;0.50;0.20;;;25.10;45.80;;;;;;4963048;28;20043;-67
2022/10/02 13:56:27;;;;;;;0.10;0.10;;;25.10;45.70;;;;;;4975503;28;20476;-67
2022/10/02 13:59:33;;;;;;;0.32;0.25;;;25.10;45.70;;;;;;4975766;28;20054;-63
2022/10/02 14:02:19;;;;;;;1.33;0.57;;;25.20;45.70;;;;;;4963708;28;20053;-67
2022/10/02 14:05:05;;;;;;;0.40;0.20;;;25.20;45.70;;;;;;4975762;28;20478;-67
2022/10/02 14:08:08;;;;;;;0.20;0.20;;;25.10;45.50;;;;;;4975744;28;20046;-67
2022/10/02 14:11:08;;;;;;;0.68;0.30;;;25.20;45.60;;;;;;4975828;28;20061;-67
2022/10/02 14:14:01;;;;;;;0.10;0.10;;;25.20;45.60;;;;;;4975740;28;20065;-67
2022/10/02 14:17:09;;;;;;;0.10;0.10;;;25.10;45.50;;;;;;4962274;28;20058;-67
2022/10/02 14:20:06;;;;;;;0.38;0.20;;;25.10;45.60;;;;;;4970526;28;20055;-67
2022/10/02 14:22:58;;;;;;;0.20;0.20;;;25.10;45.70;;;;;;4961261;28;20630;-67
2022/10/02 14:25:50;;;;;;;0.30;0.30;;;25.10;46.20;;;;;;4960884;28;20054;-66
2022/10/02 14:28:53;;;;;;;0.35;0.30;;;25.10;45.70;;;;;;4975827;28;20519;-67
2022/10/02 14:31:50;;;;;;;0.20;0.20;;;25.10;45.80;;;;;;4974973;28;20050;-67
2022/10/02 14:34:41;;;;;;;0.77;0.20;;;25.10;45.80;;;;;;4975442;28;20050;-67
2022/10/02 14:37:48;;;;;;;1.70;0.40;;;25.10;46.00;;;;;;4958262;28;20411;-67
2022/10/02 14:40:17;;;;;;;0.35;0.20;;;25.10;46.00;;;;;;4975123;28;20051;-67
2022/10/02 14:43:24;;;;;;;0.50;0.20;;;25.10;46.00;;;;;;4974690;28;20062;-67
2022/10/02 14:46:34;;;;;;;0.45;0.35;;;25.10;46.10;;;;;;4975030;28;20419;-67
2022/10/02 14:49:29;;;;;;;0.50;0.50;;;25.00;46.00;;;;;;4954801;28;20055;-67
2022/10/02 14:52:21;;;;;;;0.70;0.20;;;25.00;46.10;;;;;;4950663;28;20054;-67
2022/10/02 14:55:24;;;;;;;0.10;0.10;;;25.00;46.20;;;;;;4955878;28;20055;-67